Time;durP1;ratioP1;P1;durP2;ratioP2;P2;SDS_P1;SDS_P2;PMS_P1;PMS_P2;Temp;Humidity;BMP_temperature;BMP_pressure;BME280_temperature;BME280_humidity;BME280_pressure;Samples;Min_cycle;Max_cycle;Signal;HPM_P1;HPM_P2
2022/09/04 00:00:11;;;;;;;15.48;9.15;;;;;;;;;;10391774;28;20033;-76
2022/09/04 00:05:14;;;;;;;16.95;10.60;;;;;;;;;;10398772;28;20140;-81
2022/09/04 00:10:21;;;;;;;16.20;9.27;;;;;;;;;;10397642;28;20480;-80
2022/09/04 00:15:24;;;;;;;13.52;8.82;;;;;;;;;;10397239;28;20021;-79
2022/09/04 00:20:35;;;;;;;15.55;9.48;;;;;;;;;;10399303;28;20099;-81
2022/09/04 00:25:56;;;;;;;17.75;9.88;;;;;;;;;;10388112;28;20021;-77
2022/09/04 00:31:35;;;;;;;18.30;11.07;;;;;;;;;;10405691;28;20356;-77
2022/09/04 00:36:39;;;;;;;18.55;10.15;;;;;;;;;;10325588;28;20082;-84
2022/09/04 00:41:41;;;;;;;15.27;9.68;;;;;;;;;;10404629;28;20179;-77
2022/09/04 00:46:52;;;;;;;17.73;10.60;;;;;;;;;;10404848;28;20067;-76
2022/09/04 00:51:54;;;;;;;16.27;9.55;;;;;;;;;;10404675;28;20476;-77
2022/09/04 00:57:12;;;;;;;13.10;8.05;;;;;;;;;;10406287;28;20013;-75
2022/09/04 01:02:31;;;;;;;15.48;9.02;;;;;;;;;;10404084;28;20056;-79
2022/09/04 01:07:52;;;;;;;12.90;8.65;;;;;;;;;;10404181;28;20029;-79
2022/09/04 01:13:22;;;;;;;14.32;7.82;;;;;;;;;;10403719;28;20060;-81
2022/09/04 01:18:29;;;;;;;10.98;7.20;;;;;;;;;;10350910;28;20042;-80
2022/09/04 01:23:30;;;;;;;13.38;7.00;;;;;;;;;;10403580;28;20025;-81
2022/09/04 01:28:49;;;;;;;11.70;6.60;;;;;;;;;;10404786;28;20498;-79
2022/09/04 01:34:02;;;;;;;11.75;6.70;;;;;;;;;;10402779;28;20049;-78
2022/09/04 01:39:02;;;;;;;10.10;6.22;;;;;;;;;;10402626;28;20044;-80
2022/09/04 01:44:04;;;;;;;13.40;6.63;;;;;;;;;;10382653;28;20056;-75
2022/09/04 01:49:24;;;;;;;11.23;7.30;;;;;;;;;;10417631;28;20076;-78
2022/09/04 01:54:27;;;;;;;10.02;6.38;;;;;;;;;;10402889;28;20026;-77
2022/09/04 01:59:31;;;;;;;10.73;6.88;;;;;;;;;;10402684;28;20100;-80
2022/09/04 02:04:36;;;;;;;14.73;7.38;;;;;;;;;;10402787;28;20364;-79
2022/09/04 02:09:39;;;;;;;12.32;7.43;;;;;;;;;;10402305;28;20083;-77
2022/09/04 02:14:47;;;;;;;14.05;7.78;;;;;;;;;;10403099;28;20044;-81
2022/09/04 02:20:06;;;;;;;16.98;8.32;;;;;;;;;;10401823;28;20474;-81
2022/09/04 02:25:14;;;;;;;11.70;7.57;;;;;;;;;;10402078;28;20037;-77
2022/09/04 02:30:18;;;;;;;12.52;7.88;;;;;;;;;;10398291;28;20081;-80
2022/09/04 02:35:21;;;;;;;15.07;7.57;;;;;;;;;;10403219;28;20045;-81
2022/09/04 02:40:35;;;;;;;12.38;7.97;;;;;;;;;;10401055;28;20041;-83
2022/09/04 02:45:35;;;;;;;13.70;7.95;;;;;;;;;;10400358;28;20483;-81
2022/09/04 02:50:52;;;;;;;13.65;7.43;;;;;;;;;;10402181;28;20029;-79
2022/09/04 02:56:18;;;;;;;15.57;8.80;;;;;;;;;;10401129;28;20017;-76
2022/09/04 03:01:23;;;;;;;14.38;8.02;;;;;;;;;;10381420;28;20104;-79
2022/09/04 03:06:42;;;;;;;12.05;7.38;;;;;;;;;;10409454;28;20018;-80
2022/09/04 03:12:00;;;;;;;12.65;8.35;;;;;;;;;;10400287;28;20025;-82
2022/09/04 03:17:04;;;;;;;12.27;6.90;;;;;;;;;;10400077;28;20021;-76
2022/09/04 03:22:25;;;;;;;12.38;7.57;;;;;;;;;;10398786;28;20028;-81
2022/09/04 03:27:26;;;;;;;12.73;7.70;;;;;;;;;;10398868;28;20022;-77
2022/09/04 03:32:26;;;;;;;10.23;7.30;;;;;;;;;;10397931;28;20491;-80
2022/09/04 03:37:39;;;;;;;18.42;7.68;;;;;;;;;;10401151;28;20049;-81
2022/09/04 03:42:42;;;;;;;19.35;9.20;;;;;;;;;;10398278;28;20614;-81
2022/09/04 03:48:17;;;;;;;19.48;9.48;;;;;;;;;;10399397;28;20574;-81
2022/09/04 03:53:26;;;;;;;16.65;9.32;;;;;;;;;;10272884;28;20058;-80
2022/09/04 03:58:37;;;;;;;18.60;9.82;;;;;;;;;;10275126;28;20038;-81
2022/09/04 04:03:49;;;;;;;19.90;9.73;;;;;;;;;;10391579;28;20076;-76
2022/09/04 04:09:10;;;;;;;16.23;9.48;;;;;;;;;;10373287;28;20407;-81
2022/09/04 04:14:25;;;;;;;17.02;10.00;;;;;;;;;;10397478;28;20104;-82
2022/09/04 04:19:33;;;;;;;19.13;10.07;;;;;;;;;;10397798;28;20112;-81
2022/09/04 04:24:37;;;;;;;18.60;10.80;;;;;;;;;;10396905;28;20120;-78
2022/09/04 04:29:56;;;;;;;25.63;12.63;;;;;;;;;;10398151;28;20108;-77
2022/09/04 04:34:56;;;;;;;;;;;;;;;;;;10399263;28;20044;-80
2022/09/04 04:40:00;;;;;;;27.30;12.48;;;;;;;;;;10397658;28;19920;-81
2022/09/04 04:50:50;;;;;;;26.05;13.55;;;;;;;;;;10380585;28;20017;-77
2022/09/04 04:56:14;;;;;;;27.08;11.98;;;;;;;;;;10389906;28;20033;-79
2022/09/04 05:01:33;;;;;;;20.60;11.55;;;;;;;;;;10394894;28;20076;-81
2022/09/04 05:06:35;;;;;;;21.95;11.35;;;;;;;;;;10389132;28;20025;-85
2022/09/04 05:11:35;;;;;;;22.73;11.70;;;;;;;;;;10402660;28;20047;-77
2022/09/04 05:16:58;;;;;;;21.00;10.85;;;;;;;;;;10398687;28;20542;-82
2022/09/04 05:22:03;;;;;;;22.88;11.27;;;;;;;;;;10409853;28;20051;-79
2022/09/04 05:27:17;;;;;;;22.35;10.38;;;;;;;;;;10390139;28;20026;-77
2022/09/04 05:32:26;;;;;;;19.52;11.48;;;;;;;;;;10401570;28;20170;-82
2022/09/04 05:37:30;;;;;;;18.65;10.20;;;;;;;;;;10392373;28;20084;-82
2022/09/04 05:42:49;;;;;;;18.08;10.90;;;;;;;;;;10412571;28;20570;-83
2022/09/04 05:48:13;;;;;;;13.60;8.55;;;;;;;;;;10400009;28;20407;-81
2022/09/04 05:53:33;;;;;;;13.07;8.02;;;;;;;;;;10390148;28;20056;-77
2022/09/04 05:58:51;;;;;;;14.85;6.88;;;;;;;;;;10393983;28;20024;-82
2022/09/04 06:03:52;;;;;;;10.10;6.47;;;;;;;;;;10393125;28;20029;-76
2022/09/04 06:08:58;;;;;;;9.95;5.40;;;;;;;;;;10394702;28;20033;-82
2022/09/04 06:13:58;;;;;;;9.38;4.75;;;;;;;;;;10393619;28;20500;-77
2022/09/04 06:18:59;;;;;;;8.70;3.97;;;;;;;;;;10400505;28;20028;-81
2022/09/04 06:23:59;;;;;;;13.63;9.07;;;;;;;;;;10402161;28;20221;-77
2022/09/04 06:29:18;;;;;;;15.30;9.00;;;;;;;;;;10377005;28;20590;-81
2022/09/04 06:34:37;;;;;;;13.35;8.88;;;;;;;;;;10410857;28;20053;-82
2022/09/04 06:39:57;;;;;;;19.75;10.40;;;;;;;;;;10382193;28;20080;-81
2022/09/04 06:45:01;;;;;;;18.20;10.00;;;;;;;;;;10384924;28;20046;-78
2022/09/04 06:50:01;;;;;;;17.08;9.65;;;;;;;;;;10385100;28;20071;-77
2022/09/04 06:55:17;;;;;;;13.23;8.05;;;;;;;;;;10393387;28;20033;-77
2022/09/04 07:00:18;;;;;;;15.95;8.52;;;;;;;;;;10385715;28;20034;-81
2022/09/04 07:05:22;;;;;;;11.32;7.75;;;;;;;;;;10399182;28;20026;-82
2022/09/04 07:10:27;;;;;;;13.40;8.50;;;;;;;;;;10399937;28;20025;-80
2022/09/04 07:15:34;;;;;;;16.55;9.00;;;;;;;;;;10398076;28;20033;-80
2022/09/04 07:21:07;;;;;;;16.52;8.63;;;;;;;;;;10400192;28;20044;-82
2022/09/04 07:26:27;;;;;;;15.35;7.38;;;;;;;;;;10363204;28;20021;-81
2022/09/04 07:31:35;;;;;;;12.05;7.30;;;;;;;;;;10394676;28;20033;-81
2022/09/04 07:36:35;;;;;;;11.25;7.40;;;;;;;;;;10396227;28;20088;-82
2022/09/04 07:41:45;;;;;;;11.98;7.00;;;;;;;;;;10398256;28;20207;-85
2022/09/04 07:46:45;;;;;;;8.90;5.97;;;;;;;;;;10399070;28;20021;-82
2022/09/04 07:51:58;;;;;;;11.77;5.83;;;;;;;;;;10399158;28;20061;-78
2022/09/04 07:57:02;;;;;;;12.43;6.28;;;;;;;;;;10397668;28;20638;-76
2022/09/04 08:02:02;;;;;;;12.30;8.07;;;;;;;;;;10397884;28;20017;-82
2022/09/04 08:07:04;;;;;;;14.48;8.45;;;;;;;;;;10398513;28;20500;-79
2022/09/04 08:12:04;;;;;;;9.50;6.90;;;;;;;;;;10397731;28;20451;-82
2022/09/04 08:17:25;;;;;;;10.30;7.15;;;;;;;;;;10397941;28;20028;-82
2022/09/04 08:22:42;;;;;;;17.13;7.28;;;;;;;;;;10387185;28;20029;-85
2022/09/04 08:27:50;;;;;;;13.52;6.95;;;;;;;;;;10397898;28;20119;-82
2022/09/04 08:33:17;;;;;;;13.85;7.63;;;;;;;;;;10397857;28;20472;-82
2022/09/04 08:38:20;;;;;;;13.07;6.60;;;;;;;;;;10398927;28;20041;-82
2022/09/04 08:43:36;;;;;;;10.80;6.57;;;;;;;;;;10401734;28;20032;-86
2022/09/04 08:48:42;;;;;;;10.32;5.35;;;;;;;;;;10404690;28;20040;-78
2022/09/04 08:53:43;;;;;;;7.93;5.68;;;;;;;;;;10405246;28;20411;-77
2022/09/04 08:58:52;;;;;;;11.10;5.95;;;;;;;;;;10404192;28;20029;-81
2022/09/04 09:03:52;;;;;;;9.48;6.28;;;;;;;;;;10693194;22;20049;-78
2022/09/04 09:09:11;;;;;;;10.02;5.32;;;;;;;;;;10430489;28;20086;-80
2022/09/04 09:14:12;;;;;;;11.90;4.97;;;;;;;;;;10445572;28;20475;-80
2022/09/04 09:19:21;;;;;;;9.20;3.83;;;;;;;;;;10445821;28;20029;-77
2022/09/04 09:24:37;;;;;;;3.05;2.63;;;;;;;;;;10444901;28;20039;-76
2022/09/04 09:29:56;;;;;;;4.57;3.08;;;;;;;;;;10434058;28;20096;-82
2022/09/04 09:35:15;;;;;;;4.75;3.92;;;;;;;;;;10445551;28;20029;-81
2022/09/04 09:40:18;;;;;;;6.65;3.88;;;;;;;;;;10428218;28;20473;-77
2022/09/04 09:45:34;;;;;;;7.18;3.40;;;;;;;;;;10442575;28;20056;-77
2022/09/04 09:50:44;;;;;;;10.10;4.03;;;;;;;;;;10443419;28;20172;-81
2022/09/04 09:56:03;;;;;;;5.07;3.40;;;;;;;;;;10442141;28;20029;-77
2022/09/04 10:01:03;;;;;;;6.70;3.83;;;;;;;;;;10443999;28;20557;-81
2022/09/04 10:06:07;;;;;;;4.97;2.90;;;;;;;;;;10426509;28;20020;-77
2022/09/04 10:11:26;;;;;;;3.22;2.17;;;;;;;;;;10427778;28;20264;-82
2022/09/04 10:16:26;;;;;;;4.05;2.42;;;;;;;;;;10439571;28;20064;-77
2022/09/04 10:21:39;;;;;;;4.72;2.72;;;;;;;;;;10424213;28;20116;-80
2022/09/04 10:26:54;;;;;;;6.20;2.60;;;;;;;;;;10442699;28;20017;-82
2022/09/04 10:31:55;;;;;;;2.95;2.08;;;;;;;;;;10430545;28;20486;-78
2022/09/04 10:37:23;;;;;;;3.50;1.90;;;;;;;;;;10442729;28;20040;-82
2022/09/04 10:42:34;;;;;;;4.57;2.95;;;;;;;;;;10441687;28;20032;-81
2022/09/04 10:47:51;;;;;;;2.95;2.20;;;;;;;;;;10442808;28;20056;-82
2022/09/04 10:53:00;;;;;;;3.33;2.50;;;;;;;;;;10441575;28;20029;-82
2022/09/04 10:58:29;;;;;;;4.78;2.63;;;;;;;;;;10441207;28;20032;-76
2022/09/04 11:03:32;;;;;;;5.38;2.22;;;;;;;;;;10423475;28;20045;-82
2022/09/04 11:08:35;;;;;;;2.92;2.05;;;;;;;;;;10440344;28;20099;-77
2022/09/04 11:13:35;;;;;;;2.28;1.98;;;;;;;;;;10440536;28;20032;-77
2022/09/04 11:18:35;;;;;;;3.78;2.70;;;;;;;;;;10441061;28;20032;-83
2022/09/04 11:24:05;;;;;;;4.38;2.72;;;;;;;;;;10435305;28;20032;-83
2022/09/04 11:29:09;;;;;;;5.70;2.85;;;;;;;;;;10336382;28;20138;-83
2022/09/04 11:34:16;;;;;;;6.53;3.40;;;;;;;;;;10419908;28;20025;-77
2022/09/04 11:39:34;;;;;;;4.22;3.10;;;;;;;;;;10410391;28;20021;-81
2022/09/04 11:44:35;;;;;;;8.35;3.20;;;;;;;;;;10439268;28;20494;-80
2022/09/04 11:49:41;;;;;;;3.42;2.42;;;;;;;;;;10440359;28;20024;-83
2022/09/04 11:54:41;;;;;;;4.17;2.87;;;;;;;;;;10441706;28;20035;-82
2022/09/04 12:00:01;;;;;;;3.60;3.05;;;;;;;;;;10442586;28;20045;-78
2022/09/04 12:05:10;;;;;;;3.90;3.00;;;;;;;;;;10445547;28;20565;-78
2022/09/04 12:10:13;;;;;;;5.82;3.70;;;;;;;;;;10439998;28;20025;-81
2022/09/04 12:15:28;;;;;;;6.43;3.35;;;;;;;;;;10438538;28;20036;-77
2022/09/04 12:20:32;;;;;;;6.68;3.13;;;;;;;;;;10438956;28;20023;-82
2022/09/04 12:25:47;;;;;;;4.95;3.13;;;;;;;;;;10439667;28;20087;-78
2022/09/04 12:31:06;;;;;;;4.25;3.28;;;;;;;;;;10429396;28;20087;-78
2022/09/04 12:36:32;;;;;;;4.50;3.45;;;;;;;;;;10422566;28;20013;-76
2022/09/04 12:41:43;;;;;;;7.80;3.72;;;;;;;;;;10405052;28;20385;-78
2022/09/04 12:46:49;;;;;;;5.97;2.65;;;;;;;;;;10416294;28;20021;-83
2022/09/04 12:51:52;;;;;;;5.82;3.28;;;;;;;;;;10425591;28;20028;-81
2022/09/04 12:57:14;;;;;;;6.22;3.38;;;;;;;;;;10438287;28;20021;-81
2022/09/04 13:02:31;;;;;;;4.65;2.78;;;;;;;;;;10440060;28;20537;-79
2022/09/04 13:07:39;;;;;;;5.97;2.87;;;;;;;;;;10437589;28;20029;-78
2022/09/04 13:12:43;;;;;;;3.80;2.67;;;;;;;;;;10438048;28;20114;-78
2022/09/04 13:17:52;;;;;;;4.75;3.50;;;;;;;;;;10439124;28;20163;-82
2022/09/04 13:22:52;;;;;;;10.07;4.10;;;;;;;;;;10437189;28;20577;-78
2022/09/04 13:27:56;;;;;;;8.68;3.75;;;;;;;;;;10438664;28;20033;-77
2022/09/04 13:33:11;;;;;;;5.18;3.25;;;;;;;;;;10437633;28;20020;-78
2022/09/04 13:38:31;;;;;;;16.17;3.72;;;;;;;;;;10444695;28;20025;-80
2022/09/04 13:43:50;;;;;;;5.80;3.90;;;;;;;;;;10414503;28;20037;-80
2022/09/04 13:48:53;;;;;;;9.70;6.20;;;;;;;;;;10443221;28;20479;-79
2022/09/04 13:54:07;;;;;;;9.60;3.90;;;;;;;;;;10444479;28;20032;-77
2022/09/04 13:59:09;;;;;;;9.50;4.80;;;;;;;;;;10435346;28;20075;-77
2022/09/04 14:04:10;;;;;;;4.22;2.88;;;;;;;;;;10435691;28;20056;-79
2022/09/04 14:09:10;;;;;;;3.72;2.83;;;;;;;;;;10443219;28;20021;-82
2022/09/04 14:14:29;;;;;;;4.07;2.53;;;;;;;;;;10442736;28;20036;-79
2022/09/04 14:19:48;;;;;;;5.10;2.70;;;;;;;;;;10434146;28;20095;-83
2022/09/04 14:25:09;;;;;;;3.22;2.63;;;;;;;;;;10427188;28;20093;-80
2022/09/04 14:30:14;;;;;;;4.45;2.72;;;;;;;;;;10408240;28;20024;-82
2022/09/04 14:35:26;;;;;;;4.20;2.83;;;;;;;;;;10442769;28;20028;-85
2022/09/04 14:40:35;;;;;;;5.07;2.45;;;;;;;;;;10424762;28;20020;-77
2022/09/04 14:45:52;;;;;;;6.15;2.50;;;;;;;;;;10442627;28;20441;-82
2022/09/04 14:50:54;;;;;;;5.60;2.75;;;;;;;;;;10441154;28;20487;-82
2022/09/04 14:56:10;;;;;;;5.88;3.17;;;;;;;;;;10411237;28;20463;-81
2022/09/04 15:01:18;;;;;;;5.78;2.72;;;;;;;;;;10405323;28;20041;-79
2022/09/04 15:06:21;;;;;;;4.15;2.75;;;;;;;;;;10445348;28;20045;-84
2022/09/04 15:11:29;;;;;;;3.25;2.45;;;;;;;;;;10441395;28;20047;-79
2022/09/04 15:16:43;;;;;;;6.22;2.47;;;;;;;;;;10421885;28;20025;-81
2022/09/04 15:21:43;;;;;;;5.60;2.90;;;;;;;;;;10427873;28;20510;-82
2022/09/04 15:26:54;;;;;;;9.15;2.30;;;;;;;;;;10442412;28;20021;-82
2022/09/04 15:32:08;;;;;;;5.18;2.70;;;;;;;;;;10430850;28;20025;-79
2022/09/04 15:37:14;;;;;;;4.88;3.30;;;;;;;;;;10436618;28;20017;-80
2022/09/04 15:42:31;;;;;;;6.13;2.75;;;;;;;;;;10440377;28;20119;-77
2022/09/04 15:47:45;;;;;;;4.20;2.95;;;;;;;;;;10439602;28;20028;-78
2022/09/04 15:52:51;;;;;;;4.95;2.42;;;;;;;;;;10437514;28;20025;-82
2022/09/04 15:57:58;;;;;;;3.90;2.95;;;;;;;;;;10426584;28;20388;-81
2022/09/04 16:03:39;;;;;;;5.90;3.10;;;;;;;;;;10433642;28;20056;-78
2022/09/04 16:08:43;;;;;;;7.30;2.75;;;;;;;;;;10280050;28;20031;-80
2022/09/04 16:13:50;;;;;;;6.13;2.88;;;;;;;;;;10371195;28;20091;-81
2022/09/04 16:19:12;;;;;;;4.25;2.88;;;;;;;;;;10424480;28;20020;-79
2022/09/04 16:24:33;;;;;;;8.70;3.60;;;;;;;;;;10409512;28;20041;-78
2022/09/04 16:29:36;;;;;;;7.13;2.70;;;;;;;;;;10417545;28;20058;-83
2022/09/04 16:34:42;;;;;;;6.13;2.80;;;;;;;;;;10425458;28;20025;-78
2022/09/04 16:39:48;;;;;;;5.00;2.90;;;;;;;;;;10416804;28;20025;-82
2022/09/04 16:45:02;;;;;;;7.20;3.58;;;;;;;;;;10437734;28;20044;-74
2022/09/04 16:50:12;;;;;;;5.28;3.00;;;;;;;;;;10436744;28;20147;-75
2022/09/04 16:55:23;;;;;;;4.15;2.58;;;;;;;;;;10432010;28;20303;-74
2022/09/04 17:00:24;;;;;;;5.50;3.40;;;;;;;;;;10388847;28;20041;-72
2022/09/04 17:05:33;;;;;;;7.77;3.50;;;;;;;;;;10408546;28;20424;-73
2022/09/04 17:10:38;;;;;;;10.07;5.40;;;;;;;;;;10398781;28;20501;-74
2022/09/04 17:15:43;;;;;;;6.80;3.55;;;;;;;;;;10404012;28;20017;-74
2022/09/04 17:20:52;;;;;;;7.18;3.28;;;;;;;;;;10399797;28;20044;-77
2022/09/04 17:26:06;;;;;;;5.00;3.10;;;;;;;;;;10391181;28;20037;-78
2022/09/04 17:31:19;;;;;;;5.20;2.88;;;;;;;;;;10392674;28;20467;-76
2022/09/04 17:36:38;;;;;;;9.00;3.20;;;;;;;;;;10383176;28;20022;-75
2022/09/04 17:41:45;;;;;;;4.45;3.17;;;;;;;;;;10384288;28;20059;-77
2022/09/04 17:47:07;;;;;;;5.22;3.67;;;;;;;;;;10381679;28;20063;-78
2022/09/04 17:52:07;;;;;;;6.68;4.40;;;;;;;;;;10389458;28;20443;-77
2022/09/04 17:57:13;;;;;;;5.93;3.90;;;;;;;;;;10387903;28;20029;-76
2022/09/04 18:02:17;;;;;;;7.53;3.95;;;;;;;;;;10401349;28;20130;-76
2022/09/04 18:07:36;;;;;;;7.22;4.15;;;;;;;;;;10386019;28;20065;-79
2022/09/04 18:12:47;;;;;;;7.63;4.57;;;;;;;;;;10404050;28;20037;-74
2022/09/04 18:17:50;;;;;;;9.85;5.07;;;;;;;;;;10401988;28;20013;-74
2022/09/04 18:23:29;;;;;;;7.93;5.15;;;;;;;;;;10390399;28;20044;-79
2022/09/04 18:28:29;;;;;;;;;;;;;;;;;;10307070;28;20038;-80
2022/09/04 18:33:37;;;;;;;10.80;6.22;;;;;;;;;;10388752;28;19913;-77
2022/09/04 18:38:40;;;;;;;;;;;;;;;;;;10372492;28;20026;-77
2022/09/04 18:43:43;;;;;;;12.00;6.70;;;;;;;;;;10398316;28;19916;-80
2022/09/04 18:48:46;;;;;;;16.42;7.28;;;;;;;;;;10391222;28;20033;-79
2022/09/04 18:53:49;;;;;;;13.30;6.60;;;;;;;;;;10395342;28;20049;-74
2022/09/04 18:59:23;;;;;;;11.88;7.60;;;;;;;;;;10390498;28;20037;-81
2022/09/04 19:04:45;;;;;;;12.40;6.55;;;;;;;;;;10345960;28;20045;-76
2022/09/04 19:10:05;;;;;;;14.35;6.10;;;;;;;;;;10388486;28;20403;-76
2022/09/04 19:15:14;;;;;;;8.90;6.00;;;;;;;;;;10399330;28;20037;-80
2022/09/04 19:20:15;;;;;;;10.65;5.80;;;;;;;;;;10404621;28;20056;-78
2022/09/04 19:25:21;;;;;;;8.15;5.82;;;;;;;;;;10381160;28;20053;-82
2022/09/04 19:30:28;;;;;;;7.10;4.95;;;;;;;;;;10394031;28;20026;-76
2022/09/04 19:35:37;;;;;;;10.00;5.97;;;;;;;;;;10399057;28;20029;-84
2022/09/04 19:40:46;;;;;;;8.35;5.35;;;;;;;;;;10400918;28;20014;-77
2022/09/04 19:45:52;;;;;;;10.30;5.55;;;;;;;;;;10413905;22;20081;-78
2022/09/04 19:50:55;;;;;;;11.68;5.88;;;;;;;;;;10387698;28;20033;-77
2022/09/04 19:56:00;;;;;;;10.73;6.15;;;;;;;;;;10398952;28;20242;-78
2022/09/04 20:01:02;;;;;;;9.35;5.03;;;;;;;;;;10384272;28;20084;-77
2022/09/04 20:06:17;;;;;;;10.77;6.20;;;;;;;;;;10378639;28;20531;-80
2022/09/04 20:11:20;;;;;;;11.52;5.90;;;;;;;;;;10389025;28;20192;-85
2022/09/04 20:16:23;;;;;;;9.32;5.80;;;;;;;;;;10380441;28;20036;-80
2022/09/04 20:21:42;;;;;;;10.57;5.97;;;;;;;;;;10376592;28;20108;-79
2022/09/04 20:26:48;;;;;;;8.98;5.60;;;;;;;;;;10372253;28;20491;-79
2022/09/04 20:31:54;;;;;;;10.20;5.80;;;;;;;;;;10361121;28;20069;-78
2022/09/04 20:37:14;;;;;;;9.05;5.95;;;;;;;;;;10391436;28;20057;-75
2022/09/04 20:42:27;;;;;;;7.68;4.85;;;;;;;;;;10372176;28;20429;-78
2022/09/04 20:47:40;;;;;;;12.10;5.15;;;;;;;;;;10379974;28;20127;-79
2022/09/04 20:52:58;;;;;;;9.98;5.97;;;;;;;;;;10396046;28;20080;-81
2022/09/04 20:58:04;;;;;;;8.23;5.65;;;;;;;;;;10371379;28;20211;-77
2022/09/04 21:03:07;;;;;;;7.20;4.72;;;;;;;;;;10395680;28;20021;-82
2022/09/04 21:08:15;;;;;;;8.77;5.68;;;;;;;;;;10397915;28;20044;-78
2022/09/04 21:13:26;;;;;;;9.00;5.50;;;;;;;;;;10389295;28;20470;-79
2022/09/04 21:18:47;;;;;;;12.23;5.85;;;;;;;;;;10388492;28;20052;-80
2022/09/04 21:23:52;;;;;;;7.82;5.38;;;;;;;;;;10378591;28;20472;-80
2022/09/04 21:29:31;;;;;;;8.85;5.90;;;;;;;;;;10386603;28;20025;-79
2022/09/04 21:34:46;;;;;;;10.27;5.97;;;;;;;;;;10308358;28;20038;-79
2022/09/04 21:40:12;;;;;;;7.95;5.40;;;;;;;;;;10360986;28;20462;-78
2022/09/04 21:45:19;;;;;;;11.45;5.78;;;;;;;;;;10395792;28;20045;-80
2022/09/04 21:50:29;;;;;;;10.45;6.25;;;;;;;;;;10393869;28;20037;-86
2022/09/04 21:55:53;;;;;;;11.32;6.20;;;;;;;;;;10386625;28;20033;-82
2022/09/04 22:01:03;;;;;;;10.82;5.70;;;;;;;;;;10373279;28;20622;-79
2022/09/04 22:06:03;;;;;;;7.53;5.50;;;;;;;;;;10379666;28;20032;-77
2022/09/04 22:11:10;;;;;;;8.00;5.72;;;;;;;;;;10392945;28;20496;-76
2022/09/04 22:16:12;;;;;;;;;;;;;;;;;;10395294;28;20095;-85
2022/09/04 22:21:28;;;;;;;9.23;5.50;;;;;;;;;;10393886;28;19910;-76
2022/09/04 22:26:46;;;;;;;12.90;5.88;;;;;;;;;;10387846;28;20037;-79
2022/09/04 22:31:59;;;;;;;10.02;6.07;;;;;;;;;;10387757;28;20088;-78
2022/09/04 22:36:59;;;;;;;9.40;5.95;;;;;;;;;;10393178;28;20076;-83
2022/09/04 22:42:19;;;;;;;6.50;5.07;;;;;;;;;;10393726;28;20179;-83
2022/09/04 22:47:40;;;;;;;12.40;6.03;;;;;;;;;;10391124;28;20061;-80
2022/09/04 22:52:55;;;;;;;7.53;5.80;;;;;;;;;;10385273;28;20431;-77
2022/09/04 22:58:14;;;;;;;8.52;5.75;;;;;;;;;;10390680;28;20498;-80
2022/09/04 23:03:14;;;;;;;9.15;5.13;;;;;;;;;;10391229;28;20024;-81
2022/09/04 23:08:15;;;;;;;9.98;6.13;;;;;;;;;;10394374;28;20520;-82
2022/09/04 23:13:34;;;;;;;11.93;5.65;;;;;;;;;;10390811;28;20021;-80
2022/09/04 23:18:52;;;;;;;11.98;6.72;;;;;;;;;;10389982;28;20029;-79
2022/09/04 23:24:22;;;;;;;8.50;5.97;;;;;;;;;;10393275;28;20511;-81
2022/09/04 23:29:33;;;;;;;11.55;6.78;;;;;;;;;;10382732;28;20132;-81
2022/09/04 23:34:48;;;;;;;8.57;5.80;;;;;;;;;;10400153;28;20017;-78
2022/09/04 23:40:09;;;;;;;15.07;6.35;;;;;;;;;;10399631;28;20013;-78
2022/09/04 23:45:12;;;;;;;9.10;6.25;;;;;;;;;;10382368;28;20569;-85
2022/09/04 23:50:24;;;;;;;11.93;7.03;;;;;;;;;;10389873;28;20104;-82
2022/09/04 23:55:31;;;;;;;10.85;6.28;;;;;;;;;;10397697;28;20116;-78
